sensor_id;sensor_type;location;lat;lon;timestamp;P1;durP1;ratioP1;P2;durP2;ratioP2
14015;SDS011;7083;48.854;9.158;2023-04-24T00:01:01;182.03;;;174.83;;
14015;SDS011;7083;48.854;9.158;2023-04-24T00:03:28;225.63;;;216.60;;
14015;SDS011;7083;48.854;9.158;2023-04-24T00:05:55;234.07;;;224.63;;
14015;SDS011;7083;48.854;9.158;2023-04-24T00:08:27;281.43;;;269.77;;
14015;SDS011;7083;48.854;9.158;2023-04-24T00:10:53;864.97;;;523.37;;
14015;SDS011;7083;48.854;9.158;2023-04-24T00:13:20;1999.90;;;999.90;;
14015;SDS011;7083;48.854;9.158;2023-04-24T00:15:49;866.03;;;524.37;;
14015;SDS011;7083;48.854;9.158;2023-04-24T00:18:15;1999.90;;;999.90;;
14015;SDS011;7083;48.854;9.158;2023-04-24T00:20:42;1999.90;;;999.90;;
14015;SDS011;7083;48.854;9.158;2023-04-24T00:23:09;1999.90;;;999.90;;
14015;SDS011;7083;48.854;9.158;2023-04-24T00:25:37;1999.90;;;999.90;;
14015;SDS011;7083;48.854;9.158;2023-04-24T00:28:05;879.93;;;537.60;;
14015;SDS011;7083;48.854;9.158;2023-04-24T00:30:31;1999.90;;;999.90;;
14015;SDS011;7083;48.854;9.158;2023-04-24T00:32:58;323.77;;;310.40;;
14015;SDS011;7083;48.854;9.158;2023-04-24T00:35:25;339.83;;;325.47;;
14015;SDS011;7083;48.854;9.158;2023-04-24T00:37:52;337.17;;;323.07;;
14015;SDS011;7083;48.854;9.158;2023-04-24T00:40:18;1453.73;;;782.00;;
14015;SDS011;7083;48.854;9.158;2023-04-24T00:42:46;326.43;;;312.80;;
14015;SDS011;7083;48.854;9.158;2023-04-24T00:45:13;313.70;;;300.80;;
14015;SDS011;7083;48.854;9.158;2023-04-24T00:47:40;322.33;;;309.03;;
14015;SDS011;7083;48.854;9.158;2023-04-24T00:50:08;332.27;;;318.47;;
14015;SDS011;7083;48.854;9.158;2023-04-24T00:52:39;1448.37;;;776.90;;
14015;SDS011;7083;48.854;9.158;2023-04-24T00:55:06;1455.67;;;783.77;;
14015;SDS011;7083;48.854;9.158;2023-04-24T00:57:34;339.33;;;325.23;;
14015;SDS011;7083;48.854;9.158;2023-04-24T01:00:02;361.63;;;346.33;;
14015;SDS011;7083;48.854;9.158;2023-04-24T01:02:35;342.03;;;327.77;;
14015;SDS011;7083;48.854;9.158;2023-04-24T01:05:05;347.67;;;333.07;;
14015;SDS011;7083;48.854;9.158;2023-04-24T01:07:32;1456.00;;;784.13;;
14015;SDS011;7083;48.854;9.158;2023-04-24T01:09:59;366.03;;;350.43;;
14015;SDS011;7083;48.854;9.158;2023-04-24T01:12:26;370.03;;;354.23;;
14015;SDS011;7083;48.854;9.158;2023-04-24T01:14:53;353.77;;;338.90;;
14015;SDS011;7083;48.854;9.158;2023-04-24T01:17:23;391.50;;;374.63;;
14015;SDS011;7083;48.854;9.158;2023-04-24T01:19:49;392.17;;;375.27;;
14015;SDS011;7083;48.854;9.158;2023-04-24T01:22:20;1459.23;;;787.17;;
14015;SDS011;7083;48.854;9.158;2023-04-24T01:24:46;376.17;;;359.83;;
14015;SDS011;7083;48.854;9.158;2023-04-24T01:27:13;369.10;;;353.40;;
14015;SDS011;7083;48.854;9.158;2023-04-24T01:29:40;374.20;;;358.13;;
14015;SDS011;7083;48.854;9.158;2023-04-24T01:32:07;365.23;;;349.60;;
14015;SDS011;7083;48.854;9.158;2023-04-24T01:34:40;355.37;;;340.13;;
14015;SDS011;7083;48.854;9.158;2023-04-24T01:37:07;1450.37;;;778.80;;
14015;SDS011;7083;48.854;9.158;2023-04-24T01:39:35;1452.53;;;780.87;;
14015;SDS011;7083;48.854;9.158;2023-04-24T01:42:02;1450.23;;;778.67;;
14015;SDS011;7083;48.854;9.158;2023-04-24T01:44:30;1444.50;;;773.10;;
14015;SDS011;7083;48.854;9.158;2023-04-24T01:46:57;1999.90;;;999.90;;
14015;SDS011;7083;48.854;9.158;2023-04-24T01:49:27;1999.90;;;999.90;;
14015;SDS011;7083;48.854;9.158;2023-04-24T01:51:53;1999.90;;;999.90;;
14015;SDS011;7083;48.854;9.158;2023-04-24T01:54:20;1999.90;;;999.90;;
14015;SDS011;7083;48.854;9.158;2023-04-24T01:56:48;1999.90;;;999.90;;
14015;SDS011;7083;48.854;9.158;2023-04-24T01:59:15;1999.90;;;999.90;;
14015;SDS011;7083;48.854;9.158;2023-04-24T02:01:43;1999.90;;;999.90;;
14015;SDS011;7083;48.854;9.158;2023-04-24T02:04:10;1999.90;;;999.90;;
14015;SDS011;7083;48.854;9.158;2023-04-24T02:06:37;1999.90;;;999.90;;
14015;SDS011;7083;48.854;9.158;2023-04-24T02:09:03;1999.90;;;999.90;;
14015;SDS011;7083;48.854;9.158;2023-04-24T02:11:30;1999.90;;;999.90;;
14015;SDS011;7083;48.854;9.158;2023-04-24T02:13:58;1999.90;;;999.90;;
14015;SDS011;7083;48.854;9.158;2023-04-24T02:16:25;1999.90;;;999.90;;
14015;SDS011;7083;48.854;9.158;2023-04-24T02:18:55;1999.90;;;999.90;;
14015;SDS011;7083;48.854;9.158;2023-04-24T02:21:21;1999.90;;;999.90;;
14015;SDS011;7083;48.854;9.158;2023-04-24T02:23:48;1999.90;;;999.90;;
14015;SDS011;7083;48.854;9.158;2023-04-24T02:26:15;1999.90;;;999.90;;
14015;SDS011;7083;48.854;9.158;2023-04-24T02:28:42;1999.90;;;999.90;;
14015;SDS011;7083;48.854;9.158;2023-04-24T02:31:10;1999.90;;;999.90;;
14015;SDS011;7083;48.854;9.158;2023-04-24T02:33:37;1999.90;;;999.90;;
14015;SDS011;7083;48.854;9.158;2023-04-24T02:36:04;1999.90;;;999.90;;
14015;SDS011;7083;48.854;9.158;2023-04-24T02:38:31;1999.90;;;999.90;;
14015;SDS011;7083;48.854;9.158;2023-04-24T02:40:57;1999.90;;;999.90;;
14015;SDS011;7083;48.854;9.158;2023-04-24T02:43:25;1999.90;;;999.90;;
14015;SDS011;7083;48.854;9.158;2023-04-24T02:45:52;1999.90;;;999.90;;
14015;SDS011;7083;48.854;9.158;2023-04-24T02:48:20;1999.90;;;999.90;;
14015;SDS011;7083;48.854;9.158;2023-04-24T02:50:47;1999.90;;;999.90;;
14015;SDS011;7083;48.854;9.158;2023-04-24T02:53:13;1450.00;;;778.33;;
14015;SDS011;7083;48.854;9.158;2023-04-24T02:55:40;1999.90;;;999.90;;
14015;SDS011;7083;48.854;9.158;2023-04-24T02:58:07;1461.40;;;789.13;;
14015;SDS011;7083;48.854;9.158;2023-04-24T03:00:33;372.33;;;356.40;;
14015;SDS011;7083;48.854;9.158;2023-04-24T03:03:00;1466.40;;;793.87;;
14015;SDS011;7083;48.854;9.158;2023-04-24T03:05:29;360.80;;;345.50;;
14015;SDS011;7083;48.854;9.158;2023-04-24T03:07:56;1460.20;;;788.00;;
14015;SDS011;7083;48.854;9.158;2023-04-24T03:10:22;351.17;;;336.20;;
14015;SDS011;7083;48.854;9.158;2023-04-24T03:12:49;1455.50;;;783.57;;
14015;SDS011;7083;48.854;9.158;2023-04-24T03:15:16;348.00;;;333.23;;
14015;SDS011;7083;48.854;9.158;2023-04-24T03:17:43;355.37;;;340.07;;
14015;SDS011;7083;48.854;9.158;2023-04-24T03:20:10;345.07;;;330.07;;
14015;SDS011;7083;48.854;9.158;2023-04-24T03:22:38;353.20;;;337.73;;
14015;SDS011;7083;48.854;9.158;2023-04-24T03:25:05;368.40;;;352.30;;
14015;SDS011;7083;48.854;9.158;2023-04-24T03:27:34;356.60;;;341.00;;
14015;SDS011;7083;48.854;9.158;2023-04-24T03:30:00;353.80;;;338.33;;
14015;SDS011;7083;48.854;9.158;2023-04-24T03:32:27;372.67;;;356.67;;
14015;SDS011;7083;48.854;9.158;2023-04-24T03:34:55;357.00;;;342.07;;
14015;SDS011;7083;48.854;9.158;2023-04-24T03:37:21;376.60;;;360.03;;
14015;SDS011;7083;48.854;9.158;2023-04-24T03:39:50;338.97;;;324.90;;
14015;SDS011;7083;48.854;9.158;2023-04-24T03:42:16;329.83;;;316.27;;
14015;SDS011;7083;48.854;9.158;2023-04-24T03:44:43;352.70;;;337.70;;
14015;SDS011;7083;48.854;9.158;2023-04-24T03:47:10;327.00;;;313.60;;
14015;SDS011;7083;48.854;9.158;2023-04-24T03:49:36;319.93;;;306.73;;
14015;SDS011;7083;48.854;9.158;2023-04-24T03:52:03;322.77;;;309.47;;
14015;SDS011;7083;48.854;9.158;2023-04-24T03:54:30;320.83;;;307.70;;
14015;SDS011;7083;48.854;9.158;2023-04-24T03:56:58;332.00;;;318.47;;
14015;SDS011;7083;48.854;9.158;2023-04-24T03:59:25;328.33;;;314.93;;
14015;SDS011;7083;48.854;9.158;2023-04-24T04:01:51;326.03;;;312.47;;
14015;SDS011;7083;48.854;9.158;2023-04-24T04:04:18;320.40;;;307.20;;
14015;SDS011;7083;48.854;9.158;2023-04-24T04:06:45;319.87;;;306.70;;
14015;SDS011;7083;48.854;9.158;2023-04-24T04:09:12;314.57;;;301.70;;
14015;SDS011;7083;48.854;9.158;2023-04-24T04:11:39;311.23;;;298.50;;
14015;SDS011;7083;48.854;9.158;2023-04-24T04:14:07;314.53;;;301.60;;
14015;SDS011;7083;48.854;9.158;2023-04-24T04:16:33;310.97;;;298.23;;
14015;SDS011;7083;48.854;9.158;2023-04-24T04:19:01;317.57;;;304.57;;
14015;SDS011;7083;48.854;9.158;2023-04-24T04:21:28;334.37;;;320.67;;
14015;SDS011;7083;48.854;9.158;2023-04-24T04:23:55;370.43;;;354.23;;
14015;SDS011;7083;48.854;9.158;2023-04-24T04:26:22;281.70;;;270.23;;
14015;SDS011;7083;48.854;9.158;2023-04-24T04:28:50;238.63;;;229.17;;
14015;SDS011;7083;48.854;9.158;2023-04-24T04:31:18;234.20;;;224.80;;
14015;SDS011;7083;48.854;9.158;2023-04-24T04:33:45;279.90;;;268.70;;
14015;SDS011;7083;48.854;9.158;2023-04-24T04:36:12;258.77;;;248.07;;
14015;SDS011;7083;48.854;9.158;2023-04-24T04:38:39;288.60;;;276.97;;
14015;SDS011;7083;48.854;9.158;2023-04-24T04:41:07;270.30;;;259.17;;
14015;SDS011;7083;48.854;9.158;2023-04-24T04:43:34;242.40;;;232.53;;
14015;SDS011;7083;48.854;9.158;2023-04-24T04:46:01;216.90;;;208.10;;
14015;SDS011;7083;48.854;9.158;2023-04-24T04:48:29;241.63;;;231.80;;
14015;SDS011;7083;48.854;9.158;2023-04-24T04:50:56;286.17;;;274.20;;
14015;SDS011;7083;48.854;9.158;2023-04-24T04:53:23;244.40;;;234.40;;
14015;SDS011;7083;48.854;9.158;2023-04-24T04:55:50;288.37;;;276.47;;
14015;SDS011;7083;48.854;9.158;2023-04-24T04:58:16;319.27;;;306.17;;
14015;SDS011;7083;48.854;9.158;2023-04-24T05:00:43;318.30;;;304.90;;
14015;SDS011;7083;48.854;9.158;2023-04-24T05:03:10;328.60;;;315.17;;
14015;SDS011;7083;48.854;9.158;2023-04-24T05:05:38;334.50;;;320.70;;
14015;SDS011;7083;48.854;9.158;2023-04-24T05:08:05;310.90;;;297.80;;
14015;SDS011;7083;48.854;9.158;2023-04-24T05:10:33;332.07;;;318.47;;
14015;SDS011;7083;48.854;9.158;2023-04-24T05:13:01;327.10;;;313.60;;
14015;SDS011;7083;48.854;9.158;2023-04-24T05:15:28;332.97;;;319.27;;
14015;SDS011;7083;48.854;9.158;2023-04-24T05:17:55;309.13;;;296.33;;
14015;SDS011;7083;48.854;9.158;2023-04-24T05:20:22;327.60;;;313.93;;
14015;SDS011;7083;48.854;9.158;2023-04-24T05:22:50;319.53;;;306.50;;
14015;SDS011;7083;48.854;9.158;2023-04-24T05:25:16;315.37;;;302.47;;
14015;SDS011;7083;48.854;9.158;2023-04-24T05:27:43;320.23;;;307.13;;
14015;SDS011;7083;48.854;9.158;2023-04-24T05:30:11;297.63;;;285.40;;
14015;SDS011;7083;48.854;9.158;2023-04-24T05:32:38;306.47;;;293.90;;
14015;SDS011;7083;48.854;9.158;2023-04-24T05:35:04;334.27;;;320.57;;
14015;SDS011;7083;48.854;9.158;2023-04-24T05:37:31;327.50;;;313.87;;
14015;SDS011;7083;48.854;9.158;2023-04-24T05:40:00;320.43;;;307.00;;
14015;SDS011;7083;48.854;9.158;2023-04-24T05:42:26;313.37;;;300.50;;
14015;SDS011;7083;48.854;9.158;2023-04-24T05:44:53;309.40;;;296.63;;
14015;SDS011;7083;48.854;9.158;2023-04-24T05:47:20;310.73;;;298.00;;
14015;SDS011;7083;48.854;9.158;2023-04-24T05:49:47;293.33;;;281.23;;
14015;SDS011;7083;48.854;9.158;2023-04-24T05:52:14;265.17;;;254.43;;
14015;SDS011;7083;48.854;9.158;2023-04-24T05:54:41;266.53;;;255.70;;
14015;SDS011;7083;48.854;9.158;2023-04-24T05:57:08;269.33;;;258.30;;
14015;SDS011;7083;48.854;9.158;2023-04-24T05:59:36;238.23;;;228.40;;
14015;SDS011;7083;48.854;9.158;2023-04-24T06:02:03;215.20;;;206.60;;
14015;SDS011;7083;48.854;9.158;2023-04-24T06:04:30;202.57;;;194.60;;
14015;SDS011;7083;48.854;9.158;2023-04-24T06:06:57;210.50;;;202.03;;
14015;SDS011;7083;48.854;9.158;2023-04-24T06:09:24;195.03;;;187.30;;
14015;SDS011;7083;48.854;9.158;2023-04-24T06:11:51;185.13;;;177.70;;
14015;SDS011;7083;48.854;9.158;2023-04-24T06:14:19;182.77;;;175.47;;
14015;SDS011;7083;48.854;9.158;2023-04-24T06:16:46;201.30;;;193.37;;
14015;SDS011;7083;48.854;9.158;2023-04-24T06:19:13;236.73;;;227.37;;
14015;SDS011;7083;48.854;9.158;2023-04-24T06:21:40;305.83;;;293.50;;
14015;SDS011;7083;48.854;9.158;2023-04-24T06:24:06;405.43;;;388.17;;
14015;SDS011;7083;48.854;9.158;2023-04-24T06:26:33;440.30;;;420.80;;
14015;SDS011;7083;48.854;9.158;2023-04-24T06:29:00;406.30;;;388.90;;
14015;SDS011;7083;48.854;9.158;2023-04-24T06:31:28;285.00;;;273.57;;
14015;SDS011;7083;48.854;9.158;2023-04-24T06:33:54;312.50;;;299.50;;
14015;SDS011;7083;48.854;9.158;2023-04-24T06:36:21;316.70;;;303.60;;
14015;SDS011;7083;48.854;9.158;2023-04-24T06:38:48;316.80;;;303.80;;
14015;SDS011;7083;48.854;9.158;2023-04-24T06:41:15;255.10;;;244.67;;
14015;SDS011;7083;48.854;9.158;2023-04-24T06:43:42;309.13;;;296.07;;
14015;SDS011;7083;48.854;9.158;2023-04-24T06:46:08;275.57;;;264.37;;
14015;SDS011;7083;48.854;9.158;2023-04-24T06:48:36;251.50;;;241.30;;
14015;SDS011;7083;48.854;9.158;2023-04-24T06:51:04;344.43;;;329.27;;
14015;SDS011;7083;48.854;9.158;2023-04-24T06:53:31;382.03;;;364.77;;
14015;SDS011;7083;48.854;9.158;2023-04-24T06:55:58;404.40;;;385.63;;
14015;SDS011;7083;48.854;9.158;2023-04-24T06:58:24;1486.73;;;812.83;;
14015;SDS011;7083;48.854;9.158;2023-04-24T07:00:51;1480.93;;;807.53;;
14015;SDS011;7083;48.854;9.158;2023-04-24T07:03:18;1999.90;;;999.90;;
14015;SDS011;7083;48.854;9.158;2023-04-24T07:05:46;948.87;;;602.53;;
14015;SDS011;7083;48.854;9.158;2023-04-24T07:08:13;328.70;;;314.57;;
14015;SDS011;7083;48.854;9.158;2023-04-24T07:10:42;323.17;;;309.57;;
14015;SDS011;7083;48.854;9.158;2023-04-24T07:13:08;251.67;;;241.23;;
14015;SDS011;7083;48.854;9.158;2023-04-24T07:15:35;1460.20;;;788.33;;
14015;SDS011;7083;48.854;9.158;2023-04-24T07:18:02;1458.77;;;786.63;;
14015;SDS011;7083;48.854;9.158;2023-04-24T07:20:29;377.23;;;360.63;;
14015;SDS011;7083;48.854;9.158;2023-04-24T07:22:57;1472.00;;;798.97;;
14015;SDS011;7083;48.854;9.158;2023-04-24T07:25:24;445.93;;;425.17;;
14015;SDS011;7083;48.854;9.158;2023-04-24T07:27:50;1490.47;;;816.30;;
14015;SDS011;7083;48.854;9.158;2023-04-24T07:30:18;469.00;;;446.50;;
14015;SDS011;7083;48.854;9.158;2023-04-24T07:32:44;458.33;;;437.17;;
14015;SDS011;7083;48.854;9.158;2023-04-24T07:35:11;477.37;;;455.07;;
14015;SDS011;7083;48.854;9.158;2023-04-24T07:37:38;470.40;;;448.50;;
14015;SDS011;7083;48.854;9.158;2023-04-24T07:40:06;442.53;;;421.83;;
14015;SDS011;7083;48.854;9.158;2023-04-24T07:42:33;428.93;;;409.23;;
14015;SDS011;7083;48.854;9.158;2023-04-24T07:45:01;425.67;;;406.03;;
14015;SDS011;7083;48.854;9.158;2023-04-24T07:47:28;449.97;;;429.03;;
14015;SDS011;7083;48.854;9.158;2023-04-24T07:49:55;439.83;;;419.37;;
14015;SDS011;7083;48.854;9.158;2023-04-24T07:52:22;1999.90;;;999.90;;
14015;SDS011;7083;48.854;9.158;2023-04-24T07:54:49;1999.90;;;999.90;;
14015;SDS011;7083;48.854;9.158;2023-04-24T07:57:19;1999.90;;;999.90;;
14015;SDS011;7083;48.854;9.158;2023-04-24T07:59:45;1999.90;;;999.90;;
14015;SDS011;7083;48.854;9.158;2023-04-24T08:02:12;1999.90;;;999.90;;
14015;SDS011;7083;48.854;9.158;2023-04-24T08:04:39;1999.90;;;999.90;;
14015;SDS011;7083;48.854;9.158;2023-04-24T08:07:06;1999.90;;;999.90;;
14015;SDS011;7083;48.854;9.158;2023-04-24T08:09:33;1999.90;;;999.90;;
14015;SDS011;7083;48.854;9.158;2023-04-24T08:11:59;1999.90;;;999.90;;
14015;SDS011;7083;48.854;9.158;2023-04-24T08:14:28;1999.90;;;999.90;;
14015;SDS011;7083;48.854;9.158;2023-04-24T08:16:55;1999.90;;;999.90;;
14015;SDS011;7083;48.854;9.158;2023-04-24T08:19:22;1999.90;;;999.90;;
14015;SDS011;7083;48.854;9.158;2023-04-24T08:21:49;1999.90;;;999.90;;
14015;SDS011;7083;48.854;9.158;2023-04-24T08:24:15;1999.90;;;999.90;;
14015;SDS011;7083;48.854;9.158;2023-04-24T08:26:42;1999.90;;;999.90;;
14015;SDS011;7083;48.854;9.158;2023-04-24T08:29:09;1999.90;;;999.90;;
14015;SDS011;7083;48.854;9.158;2023-04-24T08:31:37;1999.90;;;999.90;;
14015;SDS011;7083;48.854;9.158;2023-04-24T08:34:03;1999.90;;;999.90;;
14015;SDS011;7083;48.854;9.158;2023-04-24T08:36:30;1999.90;;;999.90;;
14015;SDS011;7083;48.854;9.158;2023-04-24T08:38:58;1999.90;;;999.90;;
14015;SDS011;7083;48.854;9.158;2023-04-24T08:41:25;1999.90;;;999.90;;
14015;SDS011;7083;48.854;9.158;2023-04-24T08:43:53;1999.90;;;999.90;;
14015;SDS011;7083;48.854;9.158;2023-04-24T08:46:23;1999.90;;;999.90;;
14015;SDS011;7083;48.854;9.158;2023-04-24T08:48:52;1999.90;;;999.90;;
14015;SDS011;7083;48.854;9.158;2023-04-24T08:51:19;1999.90;;;999.90;;
14015;SDS011;7083;48.854;9.158;2023-04-24T08:53:46;1999.90;;;999.90;;
14015;SDS011;7083;48.854;9.158;2023-04-24T08:56:13;1999.90;;;999.90;;
14015;SDS011;7083;48.854;9.158;2023-04-24T08:58:41;1999.90;;;999.90;;
14015;SDS011;7083;48.854;9.158;2023-04-24T09:01:08;1999.90;;;999.90;;
14015;SDS011;7083;48.854;9.158;2023-04-24T09:03:35;1999.90;;;999.90;;
14015;SDS011;7083;48.854;9.158;2023-04-24T09:06:04;1999.90;;;999.90;;
14015;SDS011;7083;48.854;9.158;2023-04-24T09:08:33;1999.90;;;999.90;;
14015;SDS011;7083;48.854;9.158;2023-04-24T09:11:01;1999.90;;;999.90;;
14015;SDS011;7083;48.854;9.158;2023-04-24T09:13:28;1999.90;;;999.90;;
14015;SDS011;7083;48.854;9.158;2023-04-24T09:15:56;1999.90;;;999.90;;
14015;SDS011;7083;48.854;9.158;2023-04-24T09:18:25;1999.90;;;999.90;;
14015;SDS011;7083;48.854;9.158;2023-04-24T09:20:59;1999.90;;;999.90;;
14015;SDS011;7083;48.854;9.158;2023-04-24T09:23:29;1999.90;;;999.90;;
14015;SDS011;7083;48.854;9.158;2023-04-24T09:25:57;1999.90;;;999.90;;
14015;SDS011;7083;48.854;9.158;2023-04-24T09:28:26;1999.90;;;999.90;;
14015;SDS011;7083;48.854;9.158;2023-04-24T09:31:02;1999.90;;;999.90;;
14015;SDS011;7083;48.854;9.158;2023-04-24T09:33:29;1999.90;;;999.90;;
14015;SDS011;7083;48.854;9.158;2023-04-24T09:35:56;1999.90;;;999.90;;
14015;SDS011;7083;48.854;9.158;2023-04-24T09:38:31;1999.90;;;999.90;;
14015;SDS011;7083;48.854;9.158;2023-04-24T09:41:00;1999.90;;;999.90;;
14015;SDS011;7083;48.854;9.158;2023-04-24T09:43:28;1999.90;;;999.90;;
14015;SDS011;7083;48.854;9.158;2023-04-24T09:45:55;1999.90;;;999.90;;
14015;SDS011;7083;48.854;9.158;2023-04-24T09:48:29;1999.90;;;999.90;;
14015;SDS011;7083;48.854;9.158;2023-04-24T09:50:57;1999.90;;;999.90;;
14015;SDS011;7083;48.854;9.158;2023-04-24T09:53:24;1999.90;;;999.90;;
14015;SDS011;7083;48.854;9.158;2023-04-24T09:55:52;1999.90;;;999.90;;
14015;SDS011;7083;48.854;9.158;2023-04-24T09:58:24;1999.90;;;999.90;;
14015;SDS011;7083;48.854;9.158;2023-04-24T10:00:53;1999.90;;;999.90;;
14015;SDS011;7083;48.854;9.158;2023-04-24T10:03:21;1999.90;;;999.90;;
14015;SDS011;7083;48.854;9.158;2023-04-24T10:05:51;1999.90;;;999.90;;
14015;SDS011;7083;48.854;9.158;2023-04-24T10:08:19;1999.90;;;999.90;;
14015;SDS011;7083;48.854;9.158;2023-04-24T10:10:47;1999.90;;;999.90;;
14015;SDS011;7083;48.854;9.158;2023-04-24T10:13:15;1999.90;;;999.90;;
14015;SDS011;7083;48.854;9.158;2023-04-24T10:15:42;1999.90;;;999.90;;
14015;SDS011;7083;48.854;9.158;2023-04-24T10:18:10;1999.90;;;999.90;;
14015;SDS011;7083;48.854;9.158;2023-04-24T10:20:39;1999.90;;;999.90;;
14015;SDS011;7083;48.854;9.158;2023-04-24T10:23:06;1999.90;;;999.90;;
14015;SDS011;7083;48.854;9.158;2023-04-24T10:25:33;1999.90;;;999.90;;
14015;SDS011;7083;48.854;9.158;2023-04-24T10:28:02;1999.90;;;999.90;;
14015;SDS011;7083;48.854;9.158;2023-04-24T10:30:31;1999.90;;;999.90;;
14015;SDS011;7083;48.854;9.158;2023-04-24T10:33:00;1999.90;;;999.90;;
14015;SDS011;7083;48.854;9.158;2023-04-24T10:35:30;1999.90;;;999.90;;
14015;SDS011;7083;48.854;9.158;2023-04-24T10:37:58;1999.90;;;999.90;;
14015;SDS011;7083;48.854;9.158;2023-04-24T10:40:29;1999.90;;;999.90;;
14015;SDS011;7083;48.854;9.158;2023-04-24T10:42:57;1999.90;;;999.90;;
14015;SDS011;7083;48.854;9.158;2023-04-24T10:45:23;1999.90;;;999.90;;
14015;SDS011;7083;48.854;9.158;2023-04-24T10:47:52;1999.90;;;999.90;;
14015;SDS011;7083;48.854;9.158;2023-04-24T10:50:22;1999.90;;;999.90;;
14015;SDS011;7083;48.854;9.158;2023-04-24T10:52:49;1999.90;;;999.90;;
14015;SDS011;7083;48.854;9.158;2023-04-24T10:55:16;1999.90;;;999.90;;
14015;SDS011;7083;48.854;9.158;2023-04-24T10:58:05;1999.90;;;999.90;;
14015;SDS011;7083;48.854;9.158;2023-04-24T11:00:31;1999.90;;;999.90;;
14015;SDS011;7083;48.854;9.158;2023-04-24T11:02:59;1999.90;;;999.90;;
14015;SDS011;7083;48.854;9.158;2023-04-24T11:08:21;1999.90;;;999.90;;
14015;SDS011;7083;48.854;9.158;2023-04-24T11:10:59;1999.90;;;999.90;;
14015;SDS011;7083;48.854;9.158;2023-04-24T11:16:30;1999.90;;;999.90;;
14015;SDS011;7083;48.854;9.158;2023-04-24T11:19:03;1999.90;;;999.90;;
14015;SDS011;7083;48.854;9.158;2023-04-24T11:21:32;1999.90;;;999.90;;
14015;SDS011;7083;48.854;9.158;2023-04-24T11:26:53;1999.90;;;999.90;;
14015;SDS011;7083;48.854;9.158;2023-04-24T11:29:21;1999.90;;;999.90;;
14015;SDS011;7083;48.854;9.158;2023-04-24T11:31:49;1999.90;;;999.90;;
14015;SDS011;7083;48.854;9.158;2023-04-24T11:34:17;1999.90;;;999.90;;
14015;SDS011;7083;48.854;9.158;2023-04-24T11:36:45;1999.90;;;999.90;;
14015;SDS011;7083;48.854;9.158;2023-04-24T11:39:13;1999.90;;;999.90;;
14015;SDS011;7083;48.854;9.158;2023-04-24T11:41:40;1999.90;;;999.90;;
14015;SDS011;7083;48.854;9.158;2023-04-24T11:44:07;1999.90;;;999.90;;
14015;SDS011;7083;48.854;9.158;2023-04-24T11:46:35;1999.90;;;999.90;;
14015;SDS011;7083;48.854;9.158;2023-04-24T11:49:03;1999.90;;;999.90;;
14015;SDS011;7083;48.854;9.158;2023-04-24T11:51:31;1999.90;;;999.90;;
14015;SDS011;7083;48.854;9.158;2023-04-24T11:53:58;1999.90;;;999.90;;
14015;SDS011;7083;48.854;9.158;2023-04-24T11:56:25;1999.90;;;999.90;;
14015;SDS011;7083;48.854;9.158;2023-04-24T11:58:52;1999.90;;;999.90;;
14015;SDS011;7083;48.854;9.158;2023-04-24T12:01:19;1999.90;;;999.90;;
14015;SDS011;7083;48.854;9.158;2023-04-24T12:03:47;1999.90;;;999.90;;
14015;SDS011;7083;48.854;9.158;2023-04-24T12:06:16;1999.90;;;999.90;;
14015;SDS011;7083;48.854;9.158;2023-04-24T12:08:46;1999.90;;;999.90;;
14015;SDS011;7083;48.854;9.158;2023-04-24T12:11:14;1999.90;;;999.90;;
14015;SDS011;7083;48.854;9.158;2023-04-24T12:13:43;1999.90;;;999.90;;
14015;SDS011;7083;48.854;9.158;2023-04-24T12:16:10;1999.90;;;999.90;;
14015;SDS011;7083;48.854;9.158;2023-04-24T12:18:41;1999.90;;;999.90;;
14015;SDS011;7083;48.854;9.158;2023-04-24T12:21:14;1999.90;;;999.90;;
14015;SDS011;7083;48.854;9.158;2023-04-24T12:23:42;1999.90;;;999.90;;
14015;SDS011;7083;48.854;9.158;2023-04-24T12:26:11;1999.90;;;999.90;;
14015;SDS011;7083;48.854;9.158;2023-04-24T12:28:38;1999.90;;;999.90;;
14015;SDS011;7083;48.854;9.158;2023-04-24T12:31:06;1999.90;;;999.90;;
14015;SDS011;7083;48.854;9.158;2023-04-24T12:33:33;1999.90;;;999.90;;
14015;SDS011;7083;48.854;9.158;2023-04-24T12:36:01;1999.90;;;999.90;;
14015;SDS011;7083;48.854;9.158;2023-04-24T12:38:28;1999.90;;;999.90;;
14015;SDS011;7083;48.854;9.158;2023-04-24T12:41:02;1999.90;;;999.90;;
14015;SDS011;7083;48.854;9.158;2023-04-24T12:43:31;1999.90;;;999.90;;
14015;SDS011;7083;48.854;9.158;2023-04-24T12:45:58;1999.90;;;999.90;;
14015;SDS011;7083;48.854;9.158;2023-04-24T12:48:25;1999.90;;;999.90;;
14015;SDS011;7083;48.854;9.158;2023-04-24T12:50:52;1999.90;;;999.90;;
14015;SDS011;7083;48.854;9.158;2023-04-24T12:53:18;1999.90;;;999.90;;
14015;SDS011;7083;48.854;9.158;2023-04-24T12:55:45;1999.90;;;999.90;;
14015;SDS011;7083;48.854;9.158;2023-04-24T12:58:17;1999.90;;;999.90;;
14015;SDS011;7083;48.854;9.158;2023-04-24T13:00:46;1999.90;;;999.90;;
14015;SDS011;7083;48.854;9.158;2023-04-24T13:03:13;1999.90;;;999.90;;
14015;SDS011;7083;48.854;9.158;2023-04-24T13:05:41;1999.90;;;999.90;;
14015;SDS011;7083;48.854;9.158;2023-04-24T13:08:09;726.97;;;683.27;;
14015;SDS011;7083;48.854;9.158;2023-04-24T13:10:35;1999.90;;;999.90;;
14015;SDS011;7083;48.854;9.158;2023-04-24T13:13:02;1999.90;;;999.90;;
14015;SDS011;7083;48.854;9.158;2023-04-24T13:15:29;1999.90;;;999.90;;
14015;SDS011;7083;48.854;9.158;2023-04-24T13:17:57;1999.90;;;999.90;;
14015;SDS011;7083;48.854;9.158;2023-04-24T13:20:24;1999.90;;;999.90;;
14015;SDS011;7083;48.854;9.158;2023-04-24T13:22:51;1999.90;;;999.90;;
14015;SDS011;7083;48.854;9.158;2023-04-24T13:25:18;1999.90;;;999.90;;
14015;SDS011;7083;48.854;9.158;2023-04-24T13:27:45;1999.90;;;999.90;;
14015;SDS011;7083;48.854;9.158;2023-04-24T13:30:12;1999.90;;;999.90;;
14015;SDS011;7083;48.854;9.158;2023-04-24T13:32:39;1999.90;;;999.90;;
14015;SDS011;7083;48.854;9.158;2023-04-24T13:35:07;1999.90;;;999.90;;
14015;SDS011;7083;48.854;9.158;2023-04-24T13:37:34;1999.90;;;999.90;;
14015;SDS011;7083;48.854;9.158;2023-04-24T13:40:01;1999.90;;;999.90;;
14015;SDS011;7083;48.854;9.158;2023-04-24T13:42:30;1999.90;;;999.90;;
14015;SDS011;7083;48.854;9.158;2023-04-24T13:44:57;1999.90;;;999.90;;
14015;SDS011;7083;48.854;9.158;2023-04-24T13:47:24;1999.90;;;999.90;;
14015;SDS011;7083;48.854;9.158;2023-04-24T13:49:51;606.67;;;567.90;;
14015;SDS011;7083;48.854;9.158;2023-04-24T13:52:20;711.67;;;670.73;;
14015;SDS011;7083;48.854;9.158;2023-04-24T13:54:46;1999.90;;;999.90;;
14015;SDS011;7083;48.854;9.158;2023-04-24T13:57:13;1999.90;;;999.90;;
14015;SDS011;7083;48.854;9.158;2023-04-24T13:59:40;1999.90;;;999.90;;
14015;SDS011;7083;48.854;9.158;2023-04-24T14:02:07;1999.90;;;999.90;;
14015;SDS011;7083;48.854;9.158;2023-04-24T14:04:33;1999.90;;;999.90;;
14015;SDS011;7083;48.854;9.158;2023-04-24T14:07:00;1999.90;;;999.90;;
14015;SDS011;7083;48.854;9.158;2023-04-24T14:09:28;1999.90;;;999.90;;
14015;SDS011;7083;48.854;9.158;2023-04-24T14:11:55;1999.90;;;999.90;;